ESMT

Halmstad Airport

Halmstad, Sweden
METAR ESMT 140020Z AUTO 04010KT 9999 FEW035/// OVC052/// 01/M01 Q1029
Observed Flight Rules
Dec-14 @ 00:20 UTC (24 minutes ago) Visual Flight Rules
Wind Visibility Clouds
40° at 10 knots 10,000+ meters
  • Few at 3,500' AGL
  • Overcast at 5,200' AGL
Temperatures Readings
Current 1°C / 34°F
Dewpoint -1°C / 30°F
Humidity 87%
Altimeter 30.38" Hg
Pressure 1029 hPa
Elevation 30
METAR ESMT 140020Z AUTO 04010KT 9999 FEW035/// OVC052/// 01/M01 Q1029
Observed Flight Rules
Dec-14 @ 00:20 UTC
(24 minutes ago)
VFR
Wind Visibility
40° at 10 knots 10,000+ meters
Clouds
  • Few at 3,500' AGL
  • Overcast at 5,200' AGL
Temperature Dewpoint
1°C / 34°F -1°C / 30°F
Humidity Altimeter Pressure
87% 30.38" Hg 1029 hPa